Alda, Nebraska
Current Conditions -  °F | °C
As of 11:53 AM on Thursday 30 Oct 2014 (Local Time) from KGRI Reporting Station
Clear Clear  
Wind Chill: 61°   Ceiling: Unl
Heat Index: 61°   Visibility: 10mi
Dew Point: 37°   Wind: 20mph
Humidity: 41%   Direction: 340°NNW
Pressure: 30.18"   Gusts: 30mph
Location:  40.87°N, 98.47°W
Report Text: KGRI 301653Z 34017G26KT 10SM CLR 16/03 A3018 RMK AO2 PK WND 33026/1646 SLP218 T01610028
Loading
Personal Weather Stations






























Interactive Weather Map New forecast layout! Learn more

10-Day Weather Forecast

Advertisements
Track Severe Weather on mobile